Otsego, MI (49078)

4:13 AM EDT on July 30, 2016 (GMT -0400)
Weather Coffee Shoppe - Otsego | | Change Station

Elev 722 ft 42.46 °N, 85.71 °W | Updated 12 minutes ago

Light Rain
Light Rain
66.2 °F
Feels Like 66.2 °F
N
0.0
Wind Variable Wind from ESE

Today
High -- | Low -- °F
--% Chance of Precip.
Yesterday
High -- | Low -- °F
Precip. -- in
Pressure 29.96 in
Visibility 10.0 miles
Clouds Scattered Clouds 2400 ft
Mostly Cloudy 6000 ft
Overcast 11000 ft
Dew Point 58 °F
Humidity 76%
Rainfall 0.00 in
Snow Depth Not available.
6:33 AM 9:04 PM
Waning Crescent, 15% visible
SPECI KAZO 300810Z AUTO 00000KT 10SM -RA SCT024 BKN060 OVC110 18/15 A2996 RMK AO2 P0001 T01780150
Pressure 29.96 in
Visibility 10.0 miles
Clouds Scattered Clouds 2400 ft
Mostly Cloudy 6000 ft
Overcast 11000 ft
Dew Point 58 °F
Humidity 76%
Rainfall 0.00 in
Snow Depth Not available.
6:33 AM 9:04 PM
Waning Crescent, 15% visible
SPECI KAZO 300810Z AUTO 00000KT 10SM -RA SCT024 BKN060 OVC110 18/15 A2996 RMK AO2 P0001 T01780150

10-Day Weather Forecast

Almanac

Astronomy

Jul. 30, 2016 Rise Set
Actual Time
Civil Twilight
Nautical Twilight
Astronomical Twilight
Moon
Length of Visible Light
Length of Day
Tomorrow will be .
, % of the Moon is Illuminated

Today's Extremes

State Highs State Lows

Community

WunderPhotos

Upload Photos

1,928,508 photos uploaded!

WunderBlog® & News

Nearby

Air Quality

  Air Quality AQ Index Pollutant
Not available.

Snow Depth

Station Depth Elevation

Earthquake Activity

City Distance Mag. Time & Date
Minimum magnitude displayed is 2.5.

Coastal Water Temperatures

Place Temperature

Stations

Nearby Weather Stations

Station Location Temp. Windchill Dew Point Humidity Wind Precip. Elev Updated Type
                   

Watches & Warnings

There are currently no watches in effect.